createdAt,value
2018-05-11T00:00:25.886Z,0.00
2018-05-11T00:01:25.931Z,0.00
2018-05-11T00:02:26.007Z,0.00
2018-05-11T00:03:26.027Z,0.00
2018-05-11T00:04:26.074Z,0.00
2018-05-11T00:05:26.125Z,0.00
2018-05-11T00:06:26.171Z,0.00
2018-05-11T00:07:26.248Z,0.00
2018-05-11T00:08:26.268Z,0.00
2018-05-11T00:09:26.311Z,0.00
2018-05-11T00:10:26.358Z,0.00
2018-05-11T00:11:26.406Z,0.00
2018-05-11T00:12:26.495Z,0.00
2018-05-11T00:13:26.502Z,0.00
2018-05-11T00:14:26.548Z,0.00
2018-05-11T00:15:26.595Z,0.00
2018-05-11T00:16:26.643Z,0.00
2018-05-11T00:17:26.719Z,0.00
2018-05-11T00:18:26.738Z,0.00
2018-05-11T00:19:26.785Z,0.00
2018-05-11T00:20:26.838Z,0.00
2018-05-11T00:21:26.881Z,0.00
2018-05-11T00:22:26.952Z,0.00
2018-05-11T00:23:27.039Z,0.00
2018-05-11T00:24:27.047Z,0.00
2018-05-11T00:25:27.074Z,0.00
2018-05-11T00:26:27.117Z,0.00
2018-05-11T00:27:27.165Z,0.00
2018-05-11T00:28:27.213Z,0.00
2018-05-11T00:29:27.286Z,0.00
2018-05-11T00:30:27.310Z,0.00
2018-05-11T00:31:27.355Z,0.00
2018-05-11T00:32:27.420Z,0.00
2018-05-11T00:33:27.476Z,0.00
2018-05-11T00:34:27.499Z,0.00
2018-05-11T00:35:27.576Z,0.00
2018-05-11T00:36:27.593Z,0.00
2018-05-11T00:37:27.639Z,0.00
2018-05-11T00:38:27.689Z,0.00
2018-05-11T00:39:27.766Z,0.00
2018-05-11T00:40:27.782Z,0.00
2018-05-11T00:41:27.829Z,0.00
2018-05-11T00:42:27.877Z,0.00
2018-05-11T00:43:27.926Z,0.00
2018-05-11T00:44:27.998Z,0.00
2018-05-11T00:45:28.044Z,0.00
2018-05-11T00:46:28.067Z,0.00
2018-05-11T00:47:28.115Z,0.00
2018-05-11T00:48:28.163Z,0.00
2018-05-11T00:49:28.208Z,0.00
2018-05-11T00:50:28.291Z,0.00
2018-05-11T00:51:28.304Z,0.00
2018-05-11T00:52:28.351Z,0.00
2018-05-11T00:53:28.399Z,0.00
2018-05-11T00:54:28.448Z,0.00
2018-05-11T00:55:28.520Z,0.00
2018-05-11T00:56:28.542Z,0.00
2018-05-11T00:57:28.587Z,0.00
2018-05-11T00:58:28.635Z,0.00
2018-05-11T00:59:28.685Z,0.00
2018-05-11T01:00:28.759Z,0.00
2018-05-11T01:01:28.775Z,0.00
2018-05-11T01:02:28.824Z,0.00
2018-05-11T01:03:28.882Z,0.00
2018-05-11T01:04:28.919Z,0.00
2018-05-11T01:05:28.999Z,0.00
2018-05-11T01:06:29.012Z,0.00
2018-05-11T01:07:29.059Z,0.00
2018-05-11T01:08:29.106Z,0.00
2018-05-11T01:09:29.152Z,0.00
2018-05-11T01:10:29.226Z,0.00
2018-05-11T01:11:29.248Z,0.00
2018-05-11T01:12:29.320Z,0.00
2018-05-11T01:13:29.345Z,0.00
2018-05-11T01:14:29.389Z,0.00
2018-05-11T01:15:29.436Z,0.00
2018-05-11T01:16:29.483Z,0.00
2018-05-11T01:17:29.555Z,0.00
2018-05-11T01:18:29.583Z,0.00
2018-05-11T01:19:29.624Z,0.00
2018-05-11T01:20:29.672Z,0.00
2018-05-11T01:21:29.749Z,0.00
2018-05-11T01:22:29.767Z,0.00
2018-05-11T01:23:29.812Z,0.00
2018-05-11T01:24:29.862Z,0.00
2018-05-11T01:25:29.909Z,0.00
2018-05-11T01:26:29.993Z,0.00
2018-05-11T01:27:30.001Z,0.00
2018-05-11T01:28:30.051Z,0.00
2018-05-11T01:29:30.096Z,0.00
2018-05-11T01:30:30.141Z,0.00
2018-05-11T01:31:30.231Z,0.00
2018-05-11T01:32:30.236Z,0.00
2018-05-11T01:33:30.285Z,0.00
2018-05-11T01:34:30.332Z,0.00
2018-05-11T01:35:30.377Z,0.00
2018-05-11T01:36:30.447Z,0.00
2018-05-11T01:37:30.470Z,0.00
2018-05-11T01:38:30.545Z,0.00
2018-05-11T01:39:30.566Z,0.00
2018-05-11T01:40:30.611Z,0.00
2018-05-11T01:41:30.664Z,0.00
2018-05-11T01:42:30.704Z,0.00
2018-05-11T01:43:30.775Z,0.00
2018-05-11T01:44:30.804Z,0.00
2018-05-11T01:45:30.846Z,0.00
2018-05-11T01:46:30.891Z,0.00
2018-05-11T01:47:30.936Z,0.00
2018-05-11T01:48:31.025Z,0.00
2018-05-11T01:49:31.031Z,0.00
2018-05-11T01:50:31.077Z,0.00
2018-05-11T01:51:31.123Z,0.00
2018-05-11T01:52:31.174Z,0.00
2018-05-11T01:53:31.253Z,0.00
2018-05-11T01:54:31.294Z,0.00
2018-05-11T01:55:31.310Z,0.00
2018-05-11T01:56:31.357Z,0.00
2018-05-11T01:57:31.406Z,0.00
2018-05-11T01:58:31.450Z,0.00
2018-05-11T01:59:31.540Z,0.00
2018-05-11T02:00:31.543Z,0.00
2018-05-11T02:01:31.590Z,0.00
2018-05-11T02:02:31.635Z,0.00
2018-05-11T02:03:31.681Z,0.00
2018-05-11T02:04:31.762Z,0.00
2018-05-11T02:05:31.779Z,0.00
2018-05-11T02:06:31.822Z,0.00
2018-05-11T02:07:31.869Z,0.00
2018-05-11T02:08:31.916Z,0.00
2018-05-11T02:09:31.991Z,0.00
2018-05-11T02:10:32.011Z,0.00
2018-05-11T02:11:32.055Z,0.00
2018-05-11T02:12:32.101Z,0.00
2018-05-11T02:13:32.149Z,0.00
2018-05-11T02:14:32.232Z,0.00
2018-05-11T02:15:32.241Z,0.00
2018-05-11T02:16:32.290Z,0.00
2018-05-11T02:17:32.334Z,0.00
2018-05-11T02:18:32.451Z,0.00
2018-05-11T02:19:32.448Z,0.00
2018-05-11T02:20:32.497Z,0.00
2018-05-11T02:21:32.517Z,0.00
2018-05-11T02:22:32.563Z,0.00
2018-05-11T02:23:32.614Z,0.00
2018-05-11T02:24:32.682Z,0.00
2018-05-11T02:25:32.708Z,0.00
2018-05-11T02:26:32.772Z,0.00
2018-05-11T02:27:32.796Z,0.00
2018-05-11T02:28:32.842Z,0.00
2018-05-11T02:29:32.896Z,0.00
2018-05-11T02:30:32.934Z,0.00
2018-05-11T02:31:33.011Z,0.00
2018-05-11T02:32:33.037Z,0.00
2018-05-11T02:33:33.074Z,0.00
2018-05-11T02:34:33.121Z,0.00
2018-05-11T02:35:33.166Z,0.00
2018-05-11T02:36:33.240Z,0.00
2018-05-11T02:37:33.259Z,0.00
2018-05-11T02:38:33.307Z,0.00
2018-05-11T02:39:33.355Z,0.00
2018-05-11T02:40:33.401Z,0.00
2018-05-11T02:41:33.465Z,0.00
2018-05-11T02:42:33.490Z,0.00
2018-05-11T02:43:33.542Z,0.00
2018-05-11T02:44:33.582Z,0.00
2018-05-11T02:45:33.630Z,0.00
2018-05-11T02:46:33.721Z,0.00
2018-05-11T02:47:33.725Z,0.00
2018-05-11T02:48:33.771Z,0.00
2018-05-11T02:49:33.811Z,0.00
2018-05-11T02:50:33.921Z,0.00
2018-05-11T02:51:33.931Z,0.00
2018-05-11T02:52:33.995Z,0.00
2018-05-11T02:53:33.998Z,0.00
2018-05-11T02:54:34.046Z,0.00
2018-05-11T02:55:34.090Z,0.00
2018-05-11T02:56:34.136Z,0.00
2018-05-11T02:57:34.222Z,0.00
2018-05-11T02:58:34.228Z,0.00
2018-05-11T02:59:34.276Z,0.00
2018-05-11T03:00:34.320Z,0.00
2018-05-11T03:01:34.367Z,0.00
2018-05-11T03:02:34.438Z,0.00
2018-05-11T03:03:34.481Z,0.00
2018-05-11T03:04:34.508Z,0.00
2018-05-11T03:05:34.552Z,0.00
2018-05-11T03:06:34.595Z,0.00
2018-05-11T03:07:34.646Z,0.00
2018-05-11T03:08:34.721Z,0.00
2018-05-11T03:09:34.734Z,0.00
2018-05-11T03:10:34.818Z,0.00
2018-05-11T03:11:34.826Z,0.00
2018-05-11T03:12:34.874Z,0.00
2018-05-11T03:13:34.954Z,0.00
2018-05-11T03:14:34.966Z,0.00
2018-05-11T03:15:35.014Z,0.00
2018-05-11T03:16:35.056Z,0.00
2018-05-11T03:17:35.105Z,4.00
2018-05-11T03:18:35.262Z,4.00
2018-05-11T03:19:35.197Z,4.00
2018-05-11T03:20:35.241Z,4.00
2018-05-11T03:21:35.287Z,4.00
2018-05-11T03:22:35.333Z,8.00
2018-05-11T03:23:35.409Z,4.00
2018-05-11T03:24:35.424Z,8.00
2018-05-11T03:25:35.475Z,8.00
2018-05-11T03:26:35.518Z,12.00
2018-05-11T03:27:35.563Z,12.00
2018-05-11T03:28:35.644Z,16.00
2018-05-11T03:29:35.654Z,20.00
2018-05-11T03:30:35.701Z,24.00
2018-05-11T03:31:35.747Z,28.00
2018-05-11T03:32:35.792Z,32.00
2018-05-11T03:33:35.871Z,36.00
2018-05-11T03:34:35.888Z,40.00
2018-05-11T03:35:35.932Z,48.00
2018-05-11T03:36:35.976Z,56.00
2018-05-11T03:37:36.020Z,68.00
2018-05-11T03:38:36.104Z,80.00
2018-05-11T03:39:36.114Z,92.00
2018-05-11T03:40:36.161Z,104.00
2018-05-11T03:41:36.208Z,116.00
2018-05-11T03:42:36.252Z,132.00
2018-05-11T03:43:36.327Z,148.00
2018-05-11T03:44:36.344Z,164.00
2018-05-11T03:45:36.390Z,184.00
2018-05-11T03:46:36.433Z,204.00
2018-05-11T03:47:36.487Z,228.00
2018-05-11T03:48:36.567Z,252.00
2018-05-11T03:49:36.572Z,276.00
2018-05-11T03:50:36.619Z,304.00
2018-05-11T03:51:36.662Z,328.00
2018-05-11T03:52:36.710Z,360.00
2018-05-11T03:53:36.796Z,384.00
2018-05-11T03:54:36.800Z,416.00
2018-05-11T03:55:36.847Z,448.00
2018-05-11T03:56:36.891Z,476.00
2018-05-11T03:57:36.939Z,508.00
2018-05-11T03:58:37.015Z,536.00
2018-05-11T03:59:37.028Z,572.00
2018-05-11T04:00:37.078Z,608.00
2018-05-11T04:01:37.123Z,640.00
2018-05-11T04:02:37.166Z,680.00
2018-05-11T04:03:37.236Z,716.00
2018-05-11T04:04:37.260Z,756.00
2018-05-11T04:05:37.303Z,792.00
2018-05-11T04:06:37.351Z,832.00
2018-05-11T04:07:37.419Z,872.00
2018-05-11T04:08:37.441Z,908.00
2018-05-11T04:09:37.511Z,952.00
2018-05-11T04:10:37.533Z,984.00
2018-05-11T04:11:37.578Z,1024.00
2018-05-11T04:12:37.624Z,1060.00
2018-05-11T04:13:37.693Z,1100.00
2018-05-11T04:14:37.716Z,1144.00
2018-05-11T04:15:37.763Z,1184.00
2018-05-11T04:16:37.811Z,1224.00
2018-05-11T04:17:37.853Z,1268.00
2018-05-11T04:18:37.924Z,1316.00
2018-05-11T04:19:37.946Z,1360.00
2018-05-11T04:20:38.032Z,1400.00
2018-05-11T04:21:38.036Z,1436.00
2018-05-11T04:22:38.081Z,1468.00
2018-05-11T04:23:38.130Z,1500.00
2018-05-11T04:24:38.174Z,1536.00
2018-05-11T04:25:38.259Z,1572.00
2018-05-11T04:26:38.268Z,1608.00
2018-05-11T04:27:38.319Z,1644.00
2018-05-11T04:28:38.359Z,1684.00
2018-05-11T04:29:38.406Z,1732.00
2018-05-11T04:30:38.488Z,1784.00
2018-05-11T04:31:38.495Z,1836.00
2018-05-11T04:32:38.543Z,1896.00
2018-05-11T04:33:38.587Z,1956.00
2018-05-11T04:34:38.632Z,2024.00
2018-05-11T04:35:38.701Z,2096.00
2018-05-11T04:36:38.728Z,2148.00
2018-05-11T04:37:38.771Z,2188.00
2018-05-11T04:38:38.814Z,2220.00
2018-05-11T04:39:38.860Z,2268.00
2018-05-11T04:40:38.929Z,2320.00
2018-05-11T04:41:38.975Z,2388.00
2018-05-11T04:42:38.998Z,2464.00
2018-05-11T04:43:39.043Z,2516.00
2018-05-11T04:44:39.089Z,2584.00
2018-05-11T04:45:39.133Z,2656.00
2018-05-11T04:46:39.206Z,2688.00
2018-05-11T04:47:39.226Z,2724.00
2018-05-11T04:48:39.272Z,2772.00
2018-05-11T04:49:39.320Z,2804.00
2018-05-11T04:50:39.387Z,2836.00
2018-05-11T04:51:39.444Z,2864.00
2018-05-11T04:52:39.470Z,2892.00
2018-05-11T04:53:39.510Z,2928.00
2018-05-11T04:54:39.548Z,2956.00
2018-05-11T04:55:39.598Z,2992.00
2018-05-11T04:56:39.666Z,3032.00
2018-05-11T04:57:39.685Z,3068.00
2018-05-11T04:58:39.736Z,3104.00
2018-05-11T04:59:39.781Z,3136.00
2018-05-11T05:00:39.851Z,3176.00
2018-05-11T05:01:39.869Z,3212.00
2018-05-11T05:02:39.940Z,3248.00
2018-05-11T05:03:39.963Z,3284.00
2018-05-11T05:04:40.008Z,3320.00
2018-05-11T05:05:40.088Z,3360.00
2018-05-11T05:06:40.099Z,3388.00
2018-05-11T05:07:40.147Z,3428.00
2018-05-11T05:08:40.215Z,3464.00
2018-05-11T05:09:40.237Z,3496.00
2018-05-11T05:10:40.282Z,3524.00
2018-05-11T05:11:40.352Z,3560.00
2018-05-11T05:12:40.382Z,3596.00
2018-05-11T05:13:40.454Z,3628.00
2018-05-11T05:14:40.470Z,3664.00
2018-05-11T05:15:40.516Z,3692.00
2018-05-11T05:16:40.583Z,3724.00
2018-05-11T05:17:40.608Z,3748.00
2018-05-11T05:18:40.675Z,3768.00
2018-05-11T05:19:40.705Z,3800.00
2018-05-11T05:20:40.744Z,3828.00
2018-05-11T05:21:40.790Z,3848.00
2018-05-11T05:22:40.862Z,3880.00
2018-05-11T05:23:40.884Z,3912.00
2018-05-11T05:24:40.928Z,3956.00
2018-05-11T05:25:40.974Z,3988.00
2018-05-11T05:26:41.020Z,4024.00
2018-05-11T05:27:41.091Z,4056.00
2018-05-11T05:28:41.115Z,4092.00
2018-05-11T05:29:41.188Z,4132.00
2018-05-11T05:30:41.207Z,4172.00
2018-05-11T05:31:41.251Z,4216.00
2018-05-11T05:32:41.305Z,4256.00
2018-05-11T05:33:41.354Z,4296.00
2018-05-11T05:34:41.415Z,4332.00
2018-05-11T05:35:41.438Z,4364.00
2018-05-11T05:36:41.484Z,4408.00
2018-05-11T05:37:41.529Z,4448.00
2018-05-11T05:38:41.601Z,4496.00
2018-05-11T05:39:41.647Z,4540.00
2018-05-11T05:40:41.670Z,4580.00
2018-05-11T05:41:41.719Z,4620.00
2018-05-11T05:42:41.761Z,4648.00
2018-05-11T05:43:41.830Z,4680.00
2018-05-11T05:44:41.857Z,4708.00
2018-05-11T05:45:41.902Z,4736.00
2018-05-11T05:46:41.950Z,4764.00
2018-05-11T05:47:41.994Z,4796.00
2018-05-11T05:48:42.066Z,4836.00
2018-05-11T05:49:42.093Z,4868.00
2018-05-11T05:50:42.158Z,4900.00
2018-05-11T05:51:42.181Z,4928.00
2018-05-11T05:52:42.227Z,4960.00
2018-05-11T05:53:42.277Z,5000.00
2018-05-11T05:54:42.322Z,5040.00
2018-05-11T05:55:42.392Z,5072.00
2018-05-11T05:56:42.431Z,5116.00
2018-05-11T05:57:42.460Z,5160.00
2018-05-11T05:58:42.510Z,5208.00
2018-05-11T05:59:42.639Z,5256.00
2018-05-11T06:00:42.629Z,5296.00
2018-05-11T06:01:42.650Z,5340.00
2018-05-11T06:02:42.695Z,5372.00
2018-05-11T06:03:42.751Z,5408.00
2018-05-11T06:04:42.865Z,5452.00
2018-05-11T06:05:42.858Z,5508.00
2018-05-11T06:06:42.885Z,5576.00
2018-05-11T06:07:42.929Z,5628.00
2018-05-11T06:08:42.977Z,5672.00
2018-05-11T06:09:43.051Z,5728.00
2018-05-11T06:10:43.193Z,5784.00
2018-05-11T06:11:43.115Z,5860.00
2018-05-11T06:12:43.165Z,5964.00
2018-05-11T06:13:43.216Z,6124.00
2018-05-11T06:14:43.259Z,6304.00
2018-05-11T06:15:43.407Z,6564.00
2018-05-11T06:16:43.360Z,6944.00
2018-05-11T06:17:43.453Z,7316.00
2018-05-11T06:18:43.449Z,7480.00
2018-05-11T06:19:43.494Z,7716.00
2018-05-11T06:20:43.567Z,7980.00
2018-05-11T06:21:43.612Z,8108.00
2018-05-11T06:22:43.637Z,8208.00
2018-05-11T06:23:43.685Z,8336.00
2018-05-11T06:24:43.752Z,8348.00
2018-05-11T06:25:43.778Z,8172.00
2018-05-11T06:26:43.849Z,7888.00
2018-05-11T06:27:43.876Z,7476.00
2018-05-11T06:28:43.920Z,7144.00
2018-05-11T06:29:43.972Z,6920.00
2018-05-11T06:30:44.015Z,6744.00
2018-05-11T06:31:44.087Z,7240.00
2018-05-11T06:32:44.113Z,8660.00
2018-05-11T06:33:44.159Z,8564.00
2018-05-11T06:34:44.209Z,13144.00
2018-05-11T06:35:44.256Z,21728.00
2018-05-11T06:36:44.331Z,30976.00
2018-05-11T06:37:44.350Z,52928.00
2018-05-11T06:38:44.401Z,35456.00
2018-05-11T06:39:44.448Z,48000.00
2018-05-11T06:40:44.493Z,41344.00
2018-05-11T06:41:44.565Z,42144.00
2018-05-11T06:42:44.629Z,38144.00
2018-05-11T06:43:44.638Z,35744.00
2018-05-11T06:44:44.694Z,37472.00
2018-05-11T06:45:44.736Z,40672.00
2018-05-11T06:46:44.782Z,42432.00
2018-05-11T06:47:44.872Z,41216.00
2018-05-11T06:48:44.883Z,39456.00
2018-05-11T06:49:44.930Z,36832.00
2018-05-11T06:50:44.975Z,33024.00
2018-05-11T06:51:45.028Z,25120.00
2018-05-11T06:52:45.099Z,17592.00
2018-05-11T06:53:45.149Z,12128.00
2018-05-11T06:54:45.170Z,10748.00
2018-05-11T06:55:45.287Z,10692.00
2018-05-11T06:56:45.277Z,11196.00
2018-05-11T06:57:45.319Z,13356.00
2018-05-11T06:58:45.401Z,21056.00
2018-05-11T06:59:45.417Z,29024.00
2018-05-11T07:00:45.467Z,36704.00
2018-05-11T07:01:45.523Z,46144.00
2018-05-11T07:02:45.565Z,53792.00
2018-05-11T07:03:45.883Z,63616.00
2018-05-11T07:04:45.667Z,66688.00
2018-05-11T07:05:45.715Z,63040.00
2018-05-11T07:06:45.766Z,52896.00
2018-05-11T07:07:45.837Z,46880.00
2018-05-11T07:08:45.897Z,47008.00
2018-05-11T07:09:45.915Z,52384.00
2018-05-11T07:10:45.966Z,59680.00
2018-05-11T07:11:46.017Z,62816.00
2018-05-11T07:12:46.070Z,58720.00
2018-05-11T07:13:46.143Z,49664.00
2018-05-11T07:14:46.193Z,41216.00
2018-05-11T07:15:46.220Z,41376.00
2018-05-11T07:16:46.270Z,41216.00
2018-05-11T07:17:46.321Z,45184.00
2018-05-11T07:18:46.372Z,61216.00
2018-05-11T07:19:46.462Z,70912.00
2018-05-11T07:20:46.472Z,73696.00
2018-05-11T07:21:46.522Z,67424.00
2018-05-11T07:22:46.575Z,54336.00
2018-05-11T07:23:46.627Z,51264.00
2018-05-11T07:24:46.710Z,58944.00
2018-05-11T07:25:46.759Z,64096.00
2018-05-11T07:26:46.776Z,66400.00
2018-05-11T07:27:46.827Z,70688.00
2018-05-11T07:28:46.883Z,70784.00
2018-05-11T07:29:46.931Z,66592.00
2018-05-11T07:30:47.012Z,64768.00
2018-05-11T07:31:47.034Z,75360.00
2018-05-11T07:32:47.086Z,83680.00
2018-05-11T07:33:47.136Z,81248.00
2018-05-11T07:34:47.187Z,73824.00
2018-05-11T07:35:47.290Z,59072.00
2018-05-11T07:36:47.294Z,46464.00
2018-05-11T07:37:47.339Z,43680.00
2018-05-11T07:38:47.393Z,49568.00
2018-05-11T07:39:47.447Z,58624.00
2018-05-11T07:40:47.539Z,67136.00
2018-05-11T07:41:47.547Z,74880.00
2018-05-11T07:42:47.600Z,78240.00
2018-05-11T07:43:47.651Z,79776.00
2018-05-11T07:44:47.702Z,73280.00
2018-05-11T07:45:47.798Z,68096.00
2018-05-11T07:46:47.805Z,60608.00
2018-05-11T07:47:47.860Z,44672.00
2018-05-11T07:48:47.910Z,59840.00
2018-05-11T07:49:47.964Z,24288.00
2018-05-11T07:50:48.041Z,33120.00
2018-05-11T07:51:48.096Z,68288.00
2018-05-11T07:52:48.119Z,82304.00
2018-05-11T07:53:48.170Z,32000.00
2018-05-11T07:54:48.221Z,89504.00
2018-05-11T07:55:48.271Z,78656.00
2018-05-11T07:56:48.348Z,132704.00
2018-05-11T07:57:48.376Z,122528.00
2018-05-11T07:58:48.545Z,98624.00
2018-05-11T07:59:48.484Z,90880.00
2018-05-11T08:00:48.533Z,29504.00
2018-05-11T08:01:48.608Z,73024.00
2018-05-11T08:02:48.635Z,37120.00
2018-05-11T08:03:48.689Z,82496.00
2018-05-11T08:04:48.737Z,81728.00
2018-05-11T08:05:48.791Z,81120.00
2018-05-11T08:06:48.882Z,74624.00
2018-05-11T08:07:48.892Z,26464.00
2018-05-11T08:08:48.945Z,26208.00
2018-05-11T08:09:48.996Z,23168.00
2018-05-11T08:10:49.056Z,22592.00
2018-05-11T08:11:49.137Z,23072.00
2018-05-11T08:12:49.152Z,26048.00
2018-05-11T08:13:49.206Z,28896.00
2018-05-11T08:14:49.257Z,36736.00
2018-05-11T08:15:49.314Z,125024.00
2018-05-11T08:16:49.393Z,125216.00
2018-05-11T08:17:49.434Z,126848.00
2018-05-11T08:18:49.476Z,117024.00
2018-05-11T08:19:49.518Z,126464.00
2018-05-11T08:20:49.567Z,120480.00
2018-05-11T08:21:49.620Z,111552.00
2018-05-11T08:22:49.694Z,98016.00
2018-05-11T08:23:49.724Z,79360.00
2018-05-11T08:24:49.779Z,68800.00
2018-05-11T08:25:49.830Z,62208.00
2018-05-11T08:26:49.985Z,60992.00
2018-05-11T08:27:49.961Z,70944.00
2018-05-11T08:28:49.987Z,77792.00
2018-05-11T08:29:50.040Z,80224.00
2018-05-11T08:30:50.088Z,83872.00
2018-05-11T08:31:50.181Z,87296.00
2018-05-11T08:32:50.215Z,78848.00
2018-05-11T08:33:50.275Z,57312.00
2018-05-11T08:34:50.302Z,108608.00
2018-05-11T08:35:50.368Z,114016.00
2018-05-11T08:36:50.412Z,112128.00
2018-05-11T08:37:50.459Z,51104.00
2018-05-11T08:38:50.559Z,82592.00
2018-05-11T08:39:50.566Z,107040.00
2018-05-11T08:40:50.616Z,106752.00
2018-05-11T08:41:50.673Z,105184.00
2018-05-11T08:42:50.721Z,108992.00
2018-05-11T08:43:50.806Z,112352.00
2018-05-11T08:44:50.827Z,104384.00
2018-05-11T08:45:50.885Z,75424.00
2018-05-11T08:46:50.935Z,58560.00
2018-05-11T08:47:50.986Z,66560.00
2018-05-11T08:48:51.071Z,114144.00
2018-05-11T08:49:51.091Z,112864.00
2018-05-11T08:50:51.145Z,105632.00
2018-05-11T08:51:51.223Z,102144.00
2018-05-11T08:52:51.253Z,99264.00
2018-05-11T08:53:51.348Z,100736.00
2018-05-11T08:54:51.357Z,109248.00
2018-05-11T08:55:51.413Z,123936.00
2018-05-11T08:56:51.466Z,132896.00
2018-05-11T08:57:51.518Z,129024.00
2018-05-11T08:58:51.608Z,117536.00
2018-05-11T08:59:51.623Z,100224.00
2018-05-11T09:00:51.679Z,86592.00
2018-05-11T09:01:51.730Z,74528.00
2018-05-11T09:02:51.786Z,68800.00
2018-05-11T09:03:51.873Z,70304.00
2018-05-11T09:04:51.893Z,81728.00
2018-05-11T09:05:51.943Z,89056.00
2018-05-11T09:06:52.001Z,96320.00
2018-05-11T09:07:52.056Z,99872.00
2018-05-11T09:08:52.129Z,108512.00
2018-05-11T09:09:52.201Z,114976.00
2018-05-11T09:10:52.210Z,118240.00
2018-05-11T09:11:52.266Z,117952.00
2018-05-11T09:12:52.320Z,112768.00
2018-05-11T09:13:52.372Z,113440.00
2018-05-11T09:14:52.460Z,120256.00
2018-05-11T09:15:52.479Z,125728.00
2018-05-11T09:16:52.539Z,124768.00
2018-05-11T09:17:52.589Z,116864.00
2018-05-11T09:18:52.639Z,106016.00
2018-05-11T09:19:52.722Z,96832.00
2018-05-11T09:20:52.780Z,95680.00
2018-05-11T09:21:52.801Z,99904.00
2018-05-11T09:22:52.854Z,109472.00
2018-05-11T09:23:52.910Z,122848.00
2018-05-11T09:24:52.961Z,130432.00
2018-05-11T09:25:53.057Z,133696.00
2018-05-11T09:26:53.068Z,127904.00
2018-05-11T09:27:53.126Z,120384.00
2018-05-11T09:28:53.182Z,117568.00
2018-05-11T09:29:53.233Z,120960.00
2018-05-11T09:30:53.309Z,122880.00
2018-05-11T09:31:53.487Z,122048.00
2018-05-11T09:32:53.393Z,122528.00
2018-05-11T09:33:53.451Z,117696.00
2018-05-11T09:34:53.503Z,110560.00
2018-05-11T09:35:53.588Z,116448.00
2018-05-11T09:36:53.608Z,122144.00
2018-05-11T09:37:53.661Z,125184.00
2018-05-11T09:38:53.717Z,124672.00
2018-05-11T09:39:53.813Z,122784.00
2018-05-11T09:40:53.863Z,114528.00
2018-05-11T09:41:53.875Z,107744.00
2018-05-11T09:42:53.932Z,97856.00
2018-05-11T09:43:53.982Z,92832.00
2018-05-11T09:44:54.037Z,87776.00
2018-05-11T09:45:54.121Z,92320.00
2018-05-11T09:46:54.147Z,103904.00
2018-05-11T09:47:54.196Z,116480.00
2018-05-11T09:48:54.250Z,123296.00
2018-05-11T09:49:54.302Z,119712.00
2018-05-11T09:50:54.388Z,109920.00
2018-05-11T09:51:54.414Z,98688.00
2018-05-11T09:52:54.460Z,92576.00
2018-05-11T09:53:54.531Z,93344.00
2018-05-11T09:54:54.660Z,93728.00
2018-05-11T09:55:54.647Z,95552.00
2018-05-11T09:56:54.673Z,93664.00
2018-05-11T09:57:54.724Z,88288.00
2018-05-11T09:58:54.777Z,84448.00
2018-05-11T09:59:54.829Z,90560.00
2018-05-11T10:00:54.985Z,105664.00
2018-05-11T10:01:54.937Z,118592.00
2018-05-11T10:02:55.011Z,128480.00
2018-05-11T10:03:55.043Z,134016.00
2018-05-11T10:04:55.096Z,134016.00
2018-05-11T10:05:55.145Z,132832.00
2018-05-11T10:06:55.200Z,125568.00
2018-05-11T10:07:55.330Z,116160.00
2018-05-11T10:08:55.321Z,110944.00
2018-05-11T10:09:55.356Z,111808.00
2018-05-11T10:10:55.411Z,123072.00
2018-05-11T10:11:55.464Z,137504.00
2018-05-11T10:12:55.541Z,149376.00
2018-05-11T10:13:55.623Z,156448.00
2018-05-11T10:14:55.620Z,149984.00
2018-05-11T10:15:55.672Z,132608.00
2018-05-11T10:16:55.726Z,115200.00
2018-05-11T10:17:55.806Z,109504.00
2018-05-11T10:18:55.854Z,109728.00
2018-05-11T10:19:55.883Z,111584.00
2018-05-11T10:20:56.002Z,110656.00
2018-05-11T10:21:55.988Z,110720.00
2018-05-11T10:22:56.041Z,112576.00
2018-05-11T10:23:56.118Z,115424.00
2018-05-11T10:24:56.216Z,121024.00
2018-05-11T10:25:56.198Z,122144.00
2018-05-11T10:26:56.256Z,121824.00
2018-05-11T10:27:56.304Z,122304.00
2018-05-11T10:28:56.418Z,120704.00
2018-05-11T10:29:56.412Z,120896.00
2018-05-11T10:30:56.461Z,119424.00
2018-05-11T10:31:56.516Z,119904.00
2018-05-11T10:32:56.568Z,118560.00
2018-05-11T10:33:56.654Z,120832.00
2018-05-11T10:34:56.673Z,121536.00
2018-05-11T10:35:56.730Z,123360.00
2018-05-11T10:36:56.779Z,121216.00
2018-05-11T10:37:56.836Z,120576.00
2018-05-11T10:38:56.912Z,119968.00
2018-05-11T10:39:57.031Z,123040.00
2018-05-11T10:40:56.995Z,127136.00
2018-05-11T10:41:57.047Z,129152.00
2018-05-11T10:42:57.100Z,128544.00
2018-05-11T10:43:57.209Z,125344.00
2018-05-11T10:44:57.235Z,120608.00
2018-05-11T10:45:57.258Z,115264.00
2018-05-11T10:46:57.311Z,111712.00
2018-05-11T10:47:57.369Z,108352.00
2018-05-11T10:48:57.424Z,107648.00
2018-05-11T10:49:57.504Z,107648.00
2018-05-11T10:50:57.527Z,108448.00
2018-05-11T10:51:57.581Z,110304.00
2018-05-11T10:52:57.633Z,113088.00
2018-05-11T10:53:57.689Z,122336.00
2018-05-11T10:54:57.763Z,134592.00
2018-05-11T10:55:57.801Z,143872.00
2018-05-11T10:56:57.848Z,145760.00
2018-05-11T10:57:57.899Z,138048.00
2018-05-11T10:58:57.957Z,128224.00
2018-05-11T10:59:58.040Z,110528.00
2018-05-11T11:00:58.087Z,101440.00
2018-05-11T11:01:58.111Z,92704.00
2018-05-11T11:02:58.187Z,92160.00
2018-05-11T11:03:58.223Z,94688.00
2018-05-11T11:04:58.276Z,105984.00
2018-05-11T11:05:58.357Z,120672.00
2018-05-11T11:06:58.382Z,126624.00
2018-05-11T11:07:58.438Z,126912.00
2018-05-11T11:08:58.488Z,125344.00
2018-05-11T11:09:58.541Z,121344.00
2018-05-11T11:10:58.618Z,118400.00
2018-05-11T11:11:58.648Z,114784.00
2018-05-11T11:12:58.704Z,111008.00
2018-05-11T11:13:58.756Z,108800.00
2018-05-11T11:14:58.809Z,116896.00
2018-05-11T11:15:58.906Z,128384.00
2018-05-11T11:16:58.919Z,141024.00
2018-05-11T11:17:58.985Z,149696.00
2018-05-11T11:18:59.030Z,156064.00
2018-05-11T11:19:59.108Z,158240.00
2018-05-11T11:20:59.161Z,159168.00
2018-05-11T11:21:59.215Z,161920.00
2018-05-11T11:23:00.642Z,157696.00
2018-05-11T11:23:59.304Z,148448.00
2018-05-11T11:24:59.355Z,141856.00
2018-05-11T11:25:59.425Z,131456.00
2018-05-11T11:26:59.488Z,119808.00
2018-05-11T11:28:00.639Z,110048.00
2018-05-11T11:29:00.144Z,106144.00
2018-05-11T11:29:59.630Z,106016.00
2018-05-11T11:31:00.640Z,106592.00
2018-05-11T11:32:01.142Z,110176.00
2018-05-11T11:33:00.665Z,111200.00
2018-05-11T11:33:59.859Z,111584.00
2018-05-11T11:34:59.909Z,113920.00
2018-05-11T11:36:00.668Z,120928.00
2018-05-11T11:37:00.058Z,121536.00
2018-05-11T11:38:00.095Z,122080.00
2018-05-11T11:39:00.665Z,119616.00
2018-05-11T11:40:00.183Z,119296.00
2018-05-11T11:41:00.240Z,119840.00
2018-05-11T11:42:00.335Z,119712.00
2018-05-11T11:43:00.385Z,119936.00
2018-05-11T11:44:00.406Z,114976.00
2018-05-11T11:45:00.461Z,106656.00
2018-05-11T11:46:00.517Z,97568.00
2018-05-11T11:47:00.583Z,94144.00
2018-05-11T11:48:00.675Z,96864.00
2018-05-11T11:49:00.693Z,102336.00
2018-05-11T11:50:00.744Z,110112.00
2018-05-11T11:51:00.801Z,123648.00
2018-05-11T11:52:00.856Z,133312.00
2018-05-11T11:53:00.949Z,138560.00
2018-05-11T11:54:00.964Z,142208.00
2018-05-11T11:55:01.022Z,138560.00
2018-05-11T11:56:01.077Z,134880.00
2018-05-11T11:57:01.134Z,127008.00
2018-05-11T11:58:01.216Z,108480.00
2018-05-11T11:59:01.272Z,89824.00
2018-05-11T12:00:01.301Z,74720.00
2018-05-11T12:01:01.361Z,68160.00
2018-05-11T12:02:01.431Z,68544.00
2018-05-11T12:03:01.473Z,74944.00
2018-05-11T12:04:01.556Z,87968.00
2018-05-11T12:05:01.586Z,99808.00
2018-05-11T12:06:01.647Z,111488.00
2018-05-11T12:07:01.704Z,118560.00
2018-05-11T12:08:01.758Z,119744.00
2018-05-11T12:09:01.868Z,119744.00
2018-05-11T12:10:01.873Z,119200.00
2018-05-11T12:11:01.931Z,115904.00